sensor_id;sensor_type;location;lat;lon;timestamp;temperature;humidity
21682;DHT22;11002;48.256;10.084;2023-07-13T00:00:50;17.80;99.90
21682;DHT22;11002;48.256;10.084;2023-07-13T00:03:17;17.70;99.90
21682;DHT22;11002;48.256;10.084;2023-07-13T00:05:45;17.80;99.90
21682;DHT22;11002;48.256;10.084;2023-07-13T00:08:15;17.80;99.90
21682;DHT22;11002;48.256;10.084;2023-07-13T00:10:42;17.80;99.90
21682;DHT22;11002;48.256;10.084;2023-07-13T00:13:12;17.80;99.90
21682;DHT22;11002;48.256;10.084;2023-07-13T00:15:39;17.80;99.90
21682;DHT22;11002;48.256;10.084;2023-07-13T00:18:07;17.80;99.90
21682;DHT22;11002;48.256;10.084;2023-07-13T00:20:34;17.80;99.90
21682;DHT22;11002;48.256;10.084;2023-07-13T00:23:01;17.80;99.90
21682;DHT22;11002;48.256;10.084;2023-07-13T00:25:30;17.80;99.90
21682;DHT22;11002;48.256;10.084;2023-07-13T00:27:58;17.80;99.90
21682;DHT22;11002;48.256;10.084;2023-07-13T00:30:25;17.80;99.90
21682;DHT22;11002;48.256;10.084;2023-07-13T00:32:52;17.80;99.90
21682;DHT22;11002;48.256;10.084;2023-07-13T00:35:20;17.80;99.90
21682;DHT22;11002;48.256;10.084;2023-07-13T00:37:47;17.80;99.90
21682;DHT22;11002;48.256;10.084;2023-07-13T00:40:17;17.80;99.90
21682;DHT22;11002;48.256;10.084;2023-07-13T00:42:46;17.80;99.90
21682;DHT22;11002;48.256;10.084;2023-07-13T00:48:23;17.80;99.90
21682;DHT22;11002;48.256;10.084;2023-07-13T00:50:54;17.70;99.90
21682;DHT22;11002;48.256;10.084;2023-07-13T00:53:24;17.50;99.90
21682;DHT22;11002;48.256;10.084;2023-07-13T00:55:53;17.30;99.90
21682;DHT22;11002;48.256;10.084;2023-07-13T00:58:24;17.20;99.90
21682;DHT22;11002;48.256;10.084;2023-07-13T01:00:52;17.20;99.90
21682;DHT22;11002;48.256;10.084;2023-07-13T01:03:20;17.20;99.90
21682;DHT22;11002;48.256;10.084;2023-07-13T01:05:48;17.10;99.90
21682;DHT22;11002;48.256;10.084;2023-07-13T01:08:17;17.10;99.90
21682;DHT22;11002;48.256;10.084;2023-07-13T01:10:51;17.00;99.90
21682;DHT22;11002;48.256;10.084;2023-07-13T01:13:19;17.00;99.90
21682;DHT22;11002;48.256;10.084;2023-07-13T01:15:49;17.00;99.90
21682;DHT22;11002;48.256;10.084;2023-07-13T01:18:20;17.00;99.90
21682;DHT22;11002;48.256;10.084;2023-07-13T01:20:53;16.90;99.90
21682;DHT22;11002;48.256;10.084;2023-07-13T01:23:21;16.90;99.90
21682;DHT22;11002;48.256;10.084;2023-07-13T01:25:49;16.90;99.90
21682;DHT22;11002;48.256;10.084;2023-07-13T01:28:17;16.90;99.90
21682;DHT22;11002;48.256;10.084;2023-07-13T01:30:45;16.80;99.90
21682;DHT22;11002;48.256;10.084;2023-07-13T01:33:14;16.90;99.90
21682;DHT22;11002;48.256;10.084;2023-07-13T01:35:43;17.00;99.90
21682;DHT22;11002;48.256;10.084;2023-07-13T01:38:14;17.00;99.90
21682;DHT22;11002;48.256;10.084;2023-07-13T01:40:42;17.10;99.90
21682;DHT22;11002;48.256;10.084;2023-07-13T01:43:10;17.10;99.90
21682;DHT22;11002;48.256;10.084;2023-07-13T01:45:37;17.00;99.90
21682;DHT22;11002;48.256;10.084;2023-07-13T01:48:05;17.10;99.90
21682;DHT22;11002;48.256;10.084;2023-07-13T01:50:33;17.10;99.90
21682;DHT22;11002;48.256;10.084;2023-07-13T01:53:01;17.00;99.90
21682;DHT22;11002;48.256;10.084;2023-07-13T01:55:30;17.00;99.90
21682;DHT22;11002;48.256;10.084;2023-07-13T01:57:58;17.00;99.90
21682;DHT22;11002;48.256;10.084;2023-07-13T02:00:25;16.90;99.90
21682;DHT22;11002;48.256;10.084;2023-07-13T02:02:54;16.80;99.90
21682;DHT22;11002;48.256;10.084;2023-07-13T02:05:21;16.80;99.90
21682;DHT22;11002;48.256;10.084;2023-07-13T02:07:49;16.80;99.90
21682;DHT22;11002;48.256;10.084;2023-07-13T02:10:16;16.80;99.90
21682;DHT22;11002;48.256;10.084;2023-07-13T02:12:45;16.80;99.90
21682;DHT22;11002;48.256;10.084;2023-07-13T02:15:13;16.80;99.90
21682;DHT22;11002;48.256;10.084;2023-07-13T02:17:41;16.80;99.90
21682;DHT22;11002;48.256;10.084;2023-07-13T02:20:09;16.80;99.90
21682;DHT22;11002;48.256;10.084;2023-07-13T02:22:36;16.80;99.90
21682;DHT22;11002;48.256;10.084;2023-07-13T02:25:04;16.80;99.90
21682;DHT22;11002;48.256;10.084;2023-07-13T02:27:31;16.80;99.90
21682;DHT22;11002;48.256;10.084;2023-07-13T02:30:00;16.80;99.90
21682;DHT22;11002;48.256;10.084;2023-07-13T02:32:29;16.80;99.90
21682;DHT22;11002;48.256;10.084;2023-07-13T02:34:56;16.80;99.90
21682;DHT22;11002;48.256;10.084;2023-07-13T02:37:23;16.80;99.90
21682;DHT22;11002;48.256;10.084;2023-07-13T02:39:51;16.70;99.90
21682;DHT22;11002;48.256;10.084;2023-07-13T02:42:18;16.70;99.90
21682;DHT22;11002;48.256;10.084;2023-07-13T02:44:45;16.60;99.90
21682;DHT22;11002;48.256;10.084;2023-07-13T02:47:14;16.60;99.90
21682;DHT22;11002;48.256;10.084;2023-07-13T02:49:42;16.60;99.90
21682;DHT22;11002;48.256;10.084;2023-07-13T02:52:10;16.60;99.90
21682;DHT22;11002;48.256;10.084;2023-07-13T02:54:37;16.60;99.90
21682;DHT22;11002;48.256;10.084;2023-07-13T02:57:05;16.50;99.90
21682;DHT22;11002;48.256;10.084;2023-07-13T02:59:32;16.50;99.90
21682;DHT22;11002;48.256;10.084;2023-07-13T03:02:00;16.50;99.90
21682;DHT22;11002;48.256;10.084;2023-07-13T03:04:30;16.50;99.90
21682;DHT22;11002;48.256;10.084;2023-07-13T03:06:57;16.50;99.90
21682;DHT22;11002;48.256;10.084;2023-07-13T03:09:32;16.50;99.90
21682;DHT22;11002;48.256;10.084;2023-07-13T03:12:00;16.50;99.90
21682;DHT22;11002;48.256;10.084;2023-07-13T03:14:31;16.50;99.90
21682;DHT22;11002;48.256;10.084;2023-07-13T03:17:00;16.60;99.90
21682;DHT22;11002;48.256;10.084;2023-07-13T03:19:32;16.50;99.90
21682;DHT22;11002;48.256;10.084;2023-07-13T03:22:01;16.60;99.90
21682;DHT22;11002;48.256;10.084;2023-07-13T03:24:29;16.60;99.90
21682;DHT22;11002;48.256;10.084;2023-07-13T03:26:57;16.50;99.90
21682;DHT22;11002;48.256;10.084;2023-07-13T03:29:25;16.50;99.90
21682;DHT22;11002;48.256;10.084;2023-07-13T03:31:53;16.50;99.90
21682;DHT22;11002;48.256;10.084;2023-07-13T03:34:22;16.60;99.90
21682;DHT22;11002;48.256;10.084;2023-07-13T03:36:53;16.60;99.90
21682;DHT22;11002;48.256;10.084;2023-07-13T03:39:21;16.60;99.90
21682;DHT22;11002;48.256;10.084;2023-07-13T03:41:53;16.60;99.90
21682;DHT22;11002;48.256;10.084;2023-07-13T03:44:21;16.50;99.90
21682;DHT22;11002;48.256;10.084;2023-07-13T03:46:53;16.50;99.90
21682;DHT22;11002;48.256;10.084;2023-07-13T03:49:20;16.50;99.90
21682;DHT22;11002;48.256;10.084;2023-07-13T03:51:48;16.40;99.90
21682;DHT22;11002;48.256;10.084;2023-07-13T03:54:16;16.40;99.90
21682;DHT22;11002;48.256;10.084;2023-07-13T03:56:44;16.40;99.90
21682;DHT22;11002;48.256;10.084;2023-07-13T03:59:12;16.30;99.90
21682;DHT22;11002;48.256;10.084;2023-07-13T04:01:39;16.30;99.90
21682;DHT22;11002;48.256;10.084;2023-07-13T04:04:07;16.30;99.90
21682;DHT22;11002;48.256;10.084;2023-07-13T04:06:34;16.30;99.90
21682;DHT22;11002;48.256;10.084;2023-07-13T04:09:03;16.30;99.90
21682;DHT22;11002;48.256;10.084;2023-07-13T04:11:33;16.40;99.90
21682;DHT22;11002;48.256;10.084;2023-07-13T04:14:02;16.40;99.90
21682;DHT22;11002;48.256;10.084;2023-07-13T04:16:29;16.40;99.90
21682;DHT22;11002;48.256;10.084;2023-07-13T04:18:57;16.40;99.90
21682;DHT22;11002;48.256;10.084;2023-07-13T04:21:26;16.40;99.90
21682;DHT22;11002;48.256;10.084;2023-07-13T04:23:54;16.40;99.90
21682;DHT22;11002;48.256;10.084;2023-07-13T04:26:22;16.40;99.90
21682;DHT22;11002;48.256;10.084;2023-07-13T04:28:51;16.40;99.90
21682;DHT22;11002;48.256;10.084;2023-07-13T04:31:19;16.40;99.90
21682;DHT22;11002;48.256;10.084;2023-07-13T04:33:47;16.50;99.90
21682;DHT22;11002;48.256;10.084;2023-07-13T04:36:15;16.60;99.90
21682;DHT22;11002;48.256;10.084;2023-07-13T04:38:43;16.60;99.90
21682;DHT22;11002;48.256;10.084;2023-07-13T04:41:10;16.70;99.90
21682;DHT22;11002;48.256;10.084;2023-07-13T04:43:37;16.70;99.90
21682;DHT22;11002;48.256;10.084;2023-07-13T04:46:07;16.70;99.90
21682;DHT22;11002;48.256;10.084;2023-07-13T04:48:35;16.80;99.90
21682;DHT22;11002;48.256;10.084;2023-07-13T04:51:03;16.80;99.90
21682;DHT22;11002;48.256;10.084;2023-07-13T04:53:30;16.80;99.90
21682;DHT22;11002;48.256;10.084;2023-07-13T04:55:58;16.70;99.90
21682;DHT22;11002;48.256;10.084;2023-07-13T04:58:26;16.70;99.90
21682;DHT22;11002;48.256;10.084;2023-07-13T05:00:53;16.70;99.90
21682;DHT22;11002;48.256;10.084;2023-07-13T05:03:28;16.70;99.90
21682;DHT22;11002;48.256;10.084;2023-07-13T05:05:56;16.70;99.90
21682;DHT22;11002;48.256;10.084;2023-07-13T05:08:24;16.80;99.90
21682;DHT22;11002;48.256;10.084;2023-07-13T05:10:52;16.80;99.90
21682;DHT22;11002;48.256;10.084;2023-07-13T05:13:20;16.90;99.90
21682;DHT22;11002;48.256;10.084;2023-07-13T05:15:55;16.90;99.90
21682;DHT22;11002;48.256;10.084;2023-07-13T05:18:22;16.90;99.90
21682;DHT22;11002;48.256;10.084;2023-07-13T05:20:57;16.90;99.90
21682;DHT22;11002;48.256;10.084;2023-07-13T05:23:25;16.90;99.90
21682;DHT22;11002;48.256;10.084;2023-07-13T05:25:53;16.90;99.90
21682;DHT22;11002;48.256;10.084;2023-07-13T05:28:21;16.90;99.90
21682;DHT22;11002;48.256;10.084;2023-07-13T05:30:49;16.90;99.90
21682;DHT22;11002;48.256;10.084;2023-07-13T05:33:16;16.90;99.90
21682;DHT22;11002;48.256;10.084;2023-07-13T05:35:44;17.00;99.90
21682;DHT22;11002;48.256;10.084;2023-07-13T05:38:12;17.00;99.90
21682;DHT22;11002;48.256;10.084;2023-07-13T05:40:42;17.00;99.90
21682;DHT22;11002;48.256;10.084;2023-07-13T05:43:09;17.10;99.90
21682;DHT22;11002;48.256;10.084;2023-07-13T05:45:37;17.10;99.90
21682;DHT22;11002;48.256;10.084;2023-07-13T05:48:04;17.10;99.90
21682;DHT22;11002;48.256;10.084;2023-07-13T05:50:32;17.10;99.90
21682;DHT22;11002;48.256;10.084;2023-07-13T05:52:59;17.20;99.90
21682;DHT22;11002;48.256;10.084;2023-07-13T05:55:28;17.20;99.90
21682;DHT22;11002;48.256;10.084;2023-07-13T05:57:55;17.20;99.90
21682;DHT22;11002;48.256;10.084;2023-07-13T06:00:24;17.20;99.90
21682;DHT22;11002;48.256;10.084;2023-07-13T06:02:52;17.30;99.90
21682;DHT22;11002;48.256;10.084;2023-07-13T06:05:19;17.30;99.90
21682;DHT22;11002;48.256;10.084;2023-07-13T06:07:47;17.30;99.90
21682;DHT22;11002;48.256;10.084;2023-07-13T06:10:14;17.30;99.90
21682;DHT22;11002;48.256;10.084;2023-07-13T06:12:43;17.30;99.90
21682;DHT22;11002;48.256;10.084;2023-07-13T06:15:10;17.40;99.90
21682;DHT22;11002;48.256;10.084;2023-07-13T06:17:38;17.50;99.90
21682;DHT22;11002;48.256;10.084;2023-07-13T06:20:09;17.60;99.90
21682;DHT22;11002;48.256;10.084;2023-07-13T06:22:36;17.70;99.90
21682;DHT22;11002;48.256;10.084;2023-07-13T06:25:04;17.80;99.90
21682;DHT22;11002;48.256;10.084;2023-07-13T06:27:32;17.90;99.90
21682;DHT22;11002;48.256;10.084;2023-07-13T06:30:01;18.10;99.90
21682;DHT22;11002;48.256;10.084;2023-07-13T06:32:29;18.30;99.90
21682;DHT22;11002;48.256;10.084;2023-07-13T06:34:56;18.40;99.90
21682;DHT22;11002;48.256;10.084;2023-07-13T06:37:23;18.50;96.20
21682;DHT22;11002;48.256;10.084;2023-07-13T06:39:51;18.50;94.30
21682;DHT22;11002;48.256;10.084;2023-07-13T06:42:18;18.50;93.20
21682;DHT22;11002;48.256;10.084;2023-07-13T06:44:45;18.40;91.40
21682;DHT22;11002;48.256;10.084;2023-07-13T06:47:14;18.40;92.60
21682;DHT22;11002;48.256;10.084;2023-07-13T06:49:41;18.40;92.60
21682;DHT22;11002;48.256;10.084;2023-07-13T06:52:08;18.40;92.90
21682;DHT22;11002;48.256;10.084;2023-07-13T06:54:36;18.40;90.80
21682;DHT22;11002;48.256;10.084;2023-07-13T06:57:04;18.50;90.50
21682;DHT22;11002;48.256;10.084;2023-07-13T06:59:31;18.50;84.00
21682;DHT22;11002;48.256;10.084;2023-07-13T07:01:58;18.50;84.40
21682;DHT22;11002;48.256;10.084;2023-07-13T07:04:27;18.50;89.00
21682;DHT22;11002;48.256;10.084;2023-07-13T07:06:54;18.50;86.70
21682;DHT22;11002;48.256;10.084;2023-07-13T07:09:22;18.50;82.90
21682;DHT22;11002;48.256;10.084;2023-07-13T07:11:49;18.50;84.30
21682;DHT22;11002;48.256;10.084;2023-07-13T07:14:16;18.50;82.10
21682;DHT22;11002;48.256;10.084;2023-07-13T07:16:44;18.60;80.20
21682;DHT22;11002;48.256;10.084;2023-07-13T07:19:11;18.70;85.10
21682;DHT22;11002;48.256;10.084;2023-07-13T07:21:39;18.70;79.10
21682;DHT22;11002;48.256;10.084;2023-07-13T07:24:07;18.80;76.10
21682;DHT22;11002;48.256;10.084;2023-07-13T07:26:34;18.80;73.70
21682;DHT22;11002;48.256;10.084;2023-07-13T07:29:02;18.70;69.90
21682;DHT22;11002;48.256;10.084;2023-07-13T07:31:29;18.70;73.60
21682;DHT22;11002;48.256;10.084;2023-07-13T07:33:56;18.80;71.90
21682;DHT22;11002;48.256;10.084;2023-07-13T07:36:23;18.90;68.70
21682;DHT22;11002;48.256;10.084;2023-07-13T07:38:52;19.10;67.10
21682;DHT22;11002;48.256;10.084;2023-07-13T07:41:19;19.30;63.30
21682;DHT22;11002;48.256;10.084;2023-07-13T07:43:47;19.40;60.40
21682;DHT22;11002;48.256;10.084;2023-07-13T07:46:15;19.40;58.90
21682;DHT22;11002;48.256;10.084;2023-07-13T07:48:42;19.30;60.10
21682;DHT22;11002;48.256;10.084;2023-07-13T07:51:09;19.30;61.60
21682;DHT22;11002;48.256;10.084;2023-07-13T07:53:36;19.40;59.70
21682;DHT22;11002;48.256;10.084;2023-07-13T07:56:05;19.40;60.40
21682;DHT22;11002;48.256;10.084;2023-07-13T07:58:32;19.50;55.70
21682;DHT22;11002;48.256;10.084;2023-07-13T08:01:04;19.60;53.50
21682;DHT22;11002;48.256;10.084;2023-07-13T08:03:32;19.60;60.00
21682;DHT22;11002;48.256;10.084;2023-07-13T08:05:59;19.80;55.70
21682;DHT22;11002;48.256;10.084;2023-07-13T08:08:26;19.70;54.30
21682;DHT22;11002;48.256;10.084;2023-07-13T08:10:54;19.70;54.10
21682;DHT22;11002;48.256;10.084;2023-07-13T08:13:22;19.80;51.80
21682;DHT22;11002;48.256;10.084;2023-07-13T08:15:50;19.70;53.10
21682;DHT22;11002;48.256;10.084;2023-07-13T08:18:17;19.60;53.00
21682;DHT22;11002;48.256;10.084;2023-07-13T08:20:44;19.70;55.90
21682;DHT22;11002;48.256;10.084;2023-07-13T08:23:12;19.70;53.50
21682;DHT22;11002;48.256;10.084;2023-07-13T08:25:39;19.60;54.30
21682;DHT22;11002;48.256;10.084;2023-07-13T08:28:06;19.60;52.90
21682;DHT22;11002;48.256;10.084;2023-07-13T08:30:35;19.60;50.70
21682;DHT22;11002;48.256;10.084;2023-07-13T08:33:03;19.60;51.10
21682;DHT22;11002;48.256;10.084;2023-07-13T08:35:31;19.70;49.10
21682;DHT22;11002;48.256;10.084;2023-07-13T08:37:58;19.80;47.10
21682;DHT22;11002;48.256;10.084;2023-07-13T08:40:27;20.10;46.90
21682;DHT22;11002;48.256;10.084;2023-07-13T08:42:57;20.60;45.30
21682;DHT22;11002;48.256;10.084;2023-07-13T08:45:30;20.90;44.90
21682;DHT22;11002;48.256;10.084;2023-07-13T08:48:05;21.00;43.50
21682;DHT22;11002;48.256;10.084;2023-07-13T08:50:39;21.20;42.80
21682;DHT22;11002;48.256;10.084;2023-07-13T08:53:12;21.20;42.80
21682;DHT22;11002;48.256;10.084;2023-07-13T08:55:40;21.10;42.50
21682;DHT22;11002;48.256;10.084;2023-07-13T08:58:11;21.10;41.20
21682;DHT22;11002;48.256;10.084;2023-07-13T09:00:45;21.40;41.70
21682;DHT22;11002;48.256;10.084;2023-07-13T09:03:20;21.40;39.50
21682;DHT22;11002;48.256;10.084;2023-07-13T09:05:50;21.80;39.30
21682;DHT22;11002;48.256;10.084;2023-07-13T09:08:30;22.30;34.60
21682;DHT22;11002;48.256;10.084;2023-07-13T09:11:04;23.10;33.20
21682;DHT22;11002;48.256;10.084;2023-07-13T09:13:43;22.90;37.60
21682;DHT22;11002;48.256;10.084;2023-07-13T09:16:14;22.60;37.30
21682;DHT22;11002;48.256;10.084;2023-07-13T09:18:46;22.70;34.30
21682;DHT22;11002;48.256;10.084;2023-07-13T09:21:17;23.40;31.50
21682;DHT22;11002;48.256;10.084;2023-07-13T09:23:48;24.10;29.40
21682;DHT22;11002;48.256;10.084;2023-07-13T09:26:22;24.50;29.40
21682;DHT22;11002;48.256;10.084;2023-07-13T09:28:53;24.40;29.70
21682;DHT22;11002;48.256;10.084;2023-07-13T09:31:24;24.20;30.00
21682;DHT22;11002;48.256;10.084;2023-07-13T09:33:54;24.10;28.20
21682;DHT22;11002;48.256;10.084;2023-07-13T09:36:24;23.80;28.70
21682;DHT22;11002;48.256;10.084;2023-07-13T09:38:58;23.50;29.30
21682;DHT22;11002;48.256;10.084;2023-07-13T09:41:31;23.10;32.20
21682;DHT22;11002;48.256;10.084;2023-07-13T09:44:08;22.90;32.60
21682;DHT22;11002;48.256;10.084;2023-07-13T09:46:37;22.70;35.00
21682;DHT22;11002;48.256;10.084;2023-07-13T09:49:09;22.60;35.70
21682;DHT22;11002;48.256;10.084;2023-07-13T09:51:37;23.00;33.40
21682;DHT22;11002;48.256;10.084;2023-07-13T09:54:04;23.50;31.00
21682;DHT22;11002;48.256;10.084;2023-07-13T09:56:31;23.90;29.30
21682;DHT22;11002;48.256;10.084;2023-07-13T09:58:59;23.90;28.50
21682;DHT22;11002;48.256;10.084;2023-07-13T10:01:35;23.70;29.00
21682;DHT22;11002;48.256;10.084;2023-07-13T10:04:12;23.70;29.40
21682;DHT22;11002;48.256;10.084;2023-07-13T10:06:40;23.80;29.80
21682;DHT22;11002;48.256;10.084;2023-07-13T10:09:09;24.10;28.60
21682;DHT22;11002;48.256;10.084;2023-07-13T10:11:37;24.30;28.10
21682;DHT22;11002;48.256;10.084;2023-07-13T10:14:13;24.50;28.10
21682;DHT22;11002;48.256;10.084;2023-07-13T10:16:43;24.60;26.50
21682;DHT22;11002;48.256;10.084;2023-07-13T10:19:17;24.90;26.10
21682;DHT22;11002;48.256;10.084;2023-07-13T10:21:52;25.00;26.70
21682;DHT22;11002;48.256;10.084;2023-07-13T10:24:22;25.00;25.60
21682;DHT22;11002;48.256;10.084;2023-07-13T10:26:55;24.90;26.70
21682;DHT22;11002;48.256;10.084;2023-07-13T10:29:27;25.00;26.70
21682;DHT22;11002;48.256;10.084;2023-07-13T10:31:54;25.00;26.70
21682;DHT22;11002;48.256;10.084;2023-07-13T10:34:24;25.00;27.10
21682;DHT22;11002;48.256;10.084;2023-07-13T10:36:52;25.20;26.80
21682;DHT22;11002;48.256;10.084;2023-07-13T10:39:21;25.50;25.00
21682;DHT22;11002;48.256;10.084;2023-07-13T10:41:54;25.90;24.20
21682;DHT22;11002;48.256;10.084;2023-07-13T10:44:25;26.00;24.00
21682;DHT22;11002;48.256;10.084;2023-07-13T10:46:57;26.30;25.20
21682;DHT22;11002;48.256;10.084;2023-07-13T10:49:29;26.20;24.80
21682;DHT22;11002;48.256;10.084;2023-07-13T10:51:58;26.00;23.70
21682;DHT22;11002;48.256;10.084;2023-07-13T10:54:28;25.90;23.10
21682;DHT22;11002;48.256;10.084;2023-07-13T10:57:17;25.70;21.20
21682;DHT22;11002;48.256;10.084;2023-07-13T11:00:10;25.60;21.30
21682;DHT22;11002;48.256;10.084;2023-07-13T11:02:37;25.80;22.90
21682;DHT22;11002;48.256;10.084;2023-07-13T11:05:26;26.00;21.00
21682;DHT22;11002;48.256;10.084;2023-07-13T11:07:56;26.20;18.30
21682;DHT22;11002;48.256;10.084;2023-07-13T11:10:56;26.10;20.00
21682;DHT22;11002;48.256;10.084;2023-07-13T11:13:56;25.70;22.10
21682;DHT22;11002;48.256;10.084;2023-07-13T11:16:46;25.60;22.70
21682;DHT22;11002;48.256;10.084;2023-07-13T11:19:37;25.40;22.20
21682;DHT22;11002;48.256;10.084;2023-07-13T11:22:22;25.00;22.40
21682;DHT22;11002;48.256;10.084;2023-07-13T11:25:27;24.90;21.60
21682;DHT22;11002;48.256;10.084;2023-07-13T11:28:14;25.10;20.60
21682;DHT22;11002;48.256;10.084;2023-07-13T11:30:44;25.40;21.80
21682;DHT22;11002;48.256;10.084;2023-07-13T11:33:18;25.60;22.60
21682;DHT22;11002;48.256;10.084;2023-07-13T11:35:51;25.80;20.80
21682;DHT22;11002;48.256;10.084;2023-07-13T11:38:24;26.30;18.20
21682;DHT22;11002;48.256;10.084;2023-07-13T11:40:54;26.70;17.90
21682;DHT22;11002;48.256;10.084;2023-07-13T11:43:23;27.00;16.70
21682;DHT22;11002;48.256;10.084;2023-07-13T11:45:51;27.10;17.90
21682;DHT22;11002;48.256;10.084;2023-07-13T11:48:21;27.30;16.90
21682;DHT22;11002;48.256;10.084;2023-07-13T11:50:56;27.40;16.90
21682;DHT22;11002;48.256;10.084;2023-07-13T11:53:27;27.10;18.30
21682;DHT22;11002;48.256;10.084;2023-07-13T11:55:57;27.10;18.10
21682;DHT22;11002;48.256;10.084;2023-07-13T11:58:26;26.80;18.20
21682;DHT22;11002;48.256;10.084;2023-07-13T12:00:57;26.40;20.20
21682;DHT22;11002;48.256;10.084;2023-07-13T12:03:26;26.10;21.00
21682;DHT22;11002;48.256;10.084;2023-07-13T12:05:56;26.10;20.00
21682;DHT22;11002;48.256;10.084;2023-07-13T12:08:25;26.20;20.60
21682;DHT22;11002;48.256;10.084;2023-07-13T12:11:05;26.40;18.40
21682;DHT22;11002;48.256;10.084;2023-07-13T12:13:37;26.40;18.00
21682;DHT22;11002;48.256;10.084;2023-07-13T12:16:17;25.90;19.20
21682;DHT22;11002;48.256;10.084;2023-07-13T12:18:48;25.60;18.20
21682;DHT22;11002;48.256;10.084;2023-07-13T12:21:18;25.40;20.40
21682;DHT22;11002;48.256;10.084;2023-07-13T12:23:48;25.20;19.10
21682;DHT22;11002;48.256;10.084;2023-07-13T12:26:17;25.20;19.80
21682;DHT22;11002;48.256;10.084;2023-07-13T12:28:47;25.00;20.70
21682;DHT22;11002;48.256;10.084;2023-07-13T12:31:31;24.90;20.50
21682;DHT22;11002;48.256;10.084;2023-07-13T12:34:00;24.80;22.10
21682;DHT22;11002;48.256;10.084;2023-07-13T12:36:31;24.50;21.50
21682;DHT22;11002;48.256;10.084;2023-07-13T12:39:11;24.20;22.70
21682;DHT22;11002;48.256;10.084;2023-07-13T12:41:39;24.00;23.90
21682;DHT22;11002;48.256;10.084;2023-07-13T12:44:11;24.00;22.40
21682;DHT22;11002;48.256;10.084;2023-07-13T12:46:39;24.00;22.90
21682;DHT22;11002;48.256;10.084;2023-07-13T12:49:07;24.00;24.80
21682;DHT22;11002;48.256;10.084;2023-07-13T12:51:37;23.90;24.60
21682;DHT22;11002;48.256;10.084;2023-07-13T12:54:17;23.70;24.80
21682;DHT22;11002;48.256;10.084;2023-07-13T12:56:45;23.60;25.00
21682;DHT22;11002;48.256;10.084;2023-07-13T12:59:19;23.90;26.00
21682;DHT22;11002;48.256;10.084;2023-07-13T13:01:47;24.20;26.20
21682;DHT22;11002;48.256;10.084;2023-07-13T13:04:16;24.40;26.30
21682;DHT22;11002;48.256;10.084;2023-07-13T13:06:47;24.70;29.30
21682;DHT22;11002;48.256;10.084;2023-07-13T13:09:17;25.00;29.70
21682;DHT22;11002;48.256;10.084;2023-07-13T13:11:46;25.20;26.80
21682;DHT22;11002;48.256;10.084;2023-07-13T13:14:13;25.40;26.90
21682;DHT22;11002;48.256;10.084;2023-07-13T13:16:46;25.50;25.20
21682;DHT22;11002;48.256;10.084;2023-07-13T13:19:18;25.60;27.00
21682;DHT22;11002;48.256;10.084;2023-07-13T13:21:47;25.60;24.80
21682;DHT22;11002;48.256;10.084;2023-07-13T13:24:20;25.60;24.00
21682;DHT22;11002;48.256;10.084;2023-07-13T13:26:48;25.40;23.90
21682;DHT22;11002;48.256;10.084;2023-07-13T13:29:19;25.30;22.90
21682;DHT22;11002;48.256;10.084;2023-07-13T13:31:47;25.20;23.90
21682;DHT22;11002;48.256;10.084;2023-07-13T13:34:16;25.00;24.10
21682;DHT22;11002;48.256;10.084;2023-07-13T13:36:45;25.20;22.90
21682;DHT22;11002;48.256;10.084;2023-07-13T13:39:21;25.10;22.70
21682;DHT22;11002;48.256;10.084;2023-07-13T13:41:49;25.20;22.80
21682;DHT22;11002;48.256;10.084;2023-07-13T13:44:18;25.20;21.60
21682;DHT22;11002;48.256;10.084;2023-07-13T13:46:47;25.10;23.50
21682;DHT22;11002;48.256;10.084;2023-07-13T13:49:16;25.00;24.00
21682;DHT22;11002;48.256;10.084;2023-07-13T13:51:44;24.90;22.70
21682;DHT22;11002;48.256;10.084;2023-07-13T13:54:13;24.80;22.90
21682;DHT22;11002;48.256;10.084;2023-07-13T13:56:44;24.70;26.10
21682;DHT22;11002;48.256;10.084;2023-07-13T13:59:12;24.50;25.00
21682;DHT22;11002;48.256;10.084;2023-07-13T14:01:41;24.30;24.80
21682;DHT22;11002;48.256;10.084;2023-07-13T14:04:13;24.20;26.20
21682;DHT22;11002;48.256;10.084;2023-07-13T14:06:41;24.20;26.20
21682;DHT22;11002;48.256;10.084;2023-07-13T14:09:10;24.10;26.10
21682;DHT22;11002;48.256;10.084;2023-07-13T14:11:39;24.20;24.50
21682;DHT22;11002;48.256;10.084;2023-07-13T14:14:14;24.20;26.20
21682;DHT22;11002;48.256;10.084;2023-07-13T14:16:42;24.20;24.50
21682;DHT22;11002;48.256;10.084;2023-07-13T14:19:12;24.20;24.40
21682;DHT22;11002;48.256;10.084;2023-07-13T14:21:40;24.10;24.30
21682;DHT22;11002;48.256;10.084;2023-07-13T14:24:07;24.10;23.70
21682;DHT22;11002;48.256;10.084;2023-07-13T14:26:38;24.00;24.00
21682;DHT22;11002;48.256;10.084;2023-07-13T14:29:13;24.00;26.10
21682;DHT22;11002;48.256;10.084;2023-07-13T14:31:40;23.90;26.60
21682;DHT22;11002;48.256;10.084;2023-07-13T14:34:09;23.80;25.90
21682;DHT22;11002;48.256;10.084;2023-07-13T14:36:39;23.80;26.80
21682;DHT22;11002;48.256;10.084;2023-07-13T14:39:12;23.70;27.60
21682;DHT22;11002;48.256;10.084;2023-07-13T14:41:39;23.70;29.00
21682;DHT22;11002;48.256;10.084;2023-07-13T14:44:15;23.80;27.90
21682;DHT22;11002;48.256;10.084;2023-07-13T14:46:44;24.00;26.10
21682;DHT22;11002;48.256;10.084;2023-07-13T14:49:16;24.10;25.80
21682;DHT22;11002;48.256;10.084;2023-07-13T14:51:46;24.10;26.10
21682;DHT22;11002;48.256;10.084;2023-07-13T14:54:14;24.10;26.10
21682;DHT22;11002;48.256;10.084;2023-07-13T14:56:41;24.10;24.20
21682;DHT22;11002;48.256;10.084;2023-07-13T14:59:08;24.10;23.80
21682;DHT22;11002;48.256;10.084;2023-07-13T15:01:37;24.00;25.80
21682;DHT22;11002;48.256;10.084;2023-07-13T15:04:06;23.90;26.00
21682;DHT22;11002;48.256;10.084;2023-07-13T15:09:17;23.80;25.90
21682;DHT22;11002;48.256;10.084;2023-07-13T15:11:45;23.80;25.90
21682;DHT22;11002;48.256;10.084;2023-07-13T15:14:12;23.70;25.90
21682;DHT22;11002;48.256;10.084;2023-07-13T15:16:41;23.70;25.90
21682;DHT22;11002;48.256;10.084;2023-07-13T15:19:09;23.70;27.60
21682;DHT22;11002;48.256;10.084;2023-07-13T15:21:37;23.70;29.10
21682;DHT22;11002;48.256;10.084;2023-07-13T15:24:05;23.80;25.90
21682;DHT22;11002;48.256;10.084;2023-07-13T15:26:34;23.90;26.00
21682;DHT22;11002;48.256;10.084;2023-07-13T15:29:02;23.90;26.20
21682;DHT22;11002;48.256;10.084;2023-07-13T15:31:29;23.90;27.00
21682;DHT22;11002;48.256;10.084;2023-07-13T15:33:59;23.90;26.80
21682;DHT22;11002;48.256;10.084;2023-07-13T15:36:27;24.00;25.90